Overview Statistics Trail Chart Weather Telemetry Raw packets
 

This is the latest recevied weather packets stored in our database for station/object 4S6DRJ-13. If no packets are shown the sender has not sent any weather packets the latest 10 day(s).

<< 321 322 323 324 325 326 327 >>
Time Temp. Humidity Pressure Rain* Wind** Luminosity Snow
1787990171 30.56° C 74% 1009 hPa 0 mm 1.79 m/s, 233° 381 W/m² -
1787990110 30.56° C 74% 1009 hPa 0 mm 3.58 m/s, 170° 1134 W/m² -
1787990050 30.56° C 74% 1009 hPa 0 mm 1.79 m/s, 232° 435 W/m² -
1787989988 30.56° C 73% 1009 hPa 0 mm 4.02 m/s, 237° 448 W/m² -
1787989927 30.56° C 73% 1009.1 hPa 0 mm 2.24 m/s, 282° 550 W/m² -
1787989866 31.11° C 72% 1009.2 hPa 0 mm 3.13 m/s, 165° 592 W/m² -
1787989805 31.11° C 71% 1009.3 hPa 0 mm 3.58 m/s, 217° 1130 W/m² -
1787989744 31.11° C 72% 1009.1 hPa 0 mm 2.68 m/s, 222° 420 W/m² -
1787989683 31.11° C 73% 1009 hPa 0 mm 2.24 m/s, 165° 573 W/m² -
1787989622 31.11° C 73% 1009.1 hPa 0 mm 1.79 m/s, 45° 403 W/m² -
1787989561 30.56° C 73% 1009.1 hPa 0 mm 3.13 m/s, 264° 907 W/m² -
1787989500 30.56° C 74% 1009 hPa 0 mm 1.79 m/s, 172° 486 W/m² -
1787989439 30.56° C 73% 1009.3 hPa 0 mm 4.02 m/s, 268° 1124 W/m² -
1787989378 30.56° C 73% 1009.2 hPa 0 mm 1.79 m/s, 204° 1122 W/m² -
1787989317 30.56° C 74% 1009.1 hPa 0 mm 3.58 m/s, 242° 1118 W/m² -
1787989256 30.56° C 75% 1009.3 hPa 0 mm 0.89 m/s, 208° 1115 W/m² -
1787989195 30.56° C 74% 1009.3 hPa 0 mm 2.24 m/s, 209° 1109 W/m² -
1787989134 30.56° C 74% 1009.3 hPa 0 mm 2.24 m/s, 252° 1101 W/m² -
1787989073 30.56° C 74% 1009.4 hPa 0 mm 3.13 m/s, 331° 1102 W/m² -
1787989013 30.56° C 73% 1009.4 hPa 0 mm 3.58 m/s, 206° 994 W/m² -
1787988951 30.56° C 74% 1009.3 hPa 0 mm 3.13 m/s, 230° 545 W/m² -
1787988890 30.56° C 75% 1009.4 hPa 0 mm 1.34 m/s, 273° 1116 W/m² -
1787988829 30.56° C 75% 1009.3 hPa 0 mm 1.34 m/s, 59° 437 W/m² -
1787988768 30.56° C 75% 1009.3 hPa 0 mm 1.34 m/s, 251° 799 W/m² -
1787988706 30.56° C 76% 1009.3 hPa 0 mm 1.34 m/s, 263° 467 W/m² -

* Rain latest hour (hover to see other rain measurements)
** Current wind speed in m/s (hover to see current wind gust speed)